createdAt,value
2023-05-16T00:00:38.567Z,102603.88
2023-05-16T00:03:08.505Z,102607.47
2023-05-16T00:05:36.888Z,102606.59
2023-05-16T00:08:04.998Z,102612.94
2023-05-16T00:10:32.903Z,102616.50
2023-05-16T00:13:02.158Z,102617.44
2023-05-16T00:15:30.896Z,102618.34
2023-05-16T00:17:59.737Z,102621.06
2023-05-16T00:20:30.110Z,102617.50
2023-05-16T00:23:01.174Z,102615.78
2023-05-16T00:25:29.454Z,102611.50
2023-05-16T00:27:57.289Z,102614.19
2023-05-16T00:30:25.389Z,102613.41
2023-05-16T00:32:53.468Z,102615.13
2023-05-16T00:35:21.569Z,102612.47
2023-05-16T00:37:51.367Z,102611.69
2023-05-16T00:40:19.443Z,102619.00
2023-05-16T00:42:47.305Z,102615.72
2023-05-16T00:45:15.165Z,102621.31
2023-05-16T00:47:43.021Z,102633.03
2023-05-16T00:50:11.800Z,102626.22
2023-05-16T00:52:39.677Z,102628.16
2023-05-16T00:55:10.447Z,102623.75
2023-05-16T00:57:38.429Z,102621.19
2023-05-16T01:00:07.384Z,102623.84
2023-05-16T01:02:36.454Z,102616.91
2023-05-16T01:05:05.296Z,102621.38
2023-05-16T01:07:33.215Z,102613.53
2023-05-16T01:10:01.230Z,102611.03
2023-05-16T01:12:32.905Z,102617.31
2023-05-16T01:15:04.079Z,102619.19
2023-05-16T01:17:35.734Z,102619.22
2023-05-16T01:20:08.263Z,102615.66
2023-05-16T01:22:42.485Z,102610.34
2023-05-16T01:25:16.546Z,102614.69
2023-05-16T01:27:45.860Z,102605.72
2023-05-16T01:30:17.501Z,102606.53
2023-05-16T01:32:45.475Z,102602.03
2023-05-16T01:35:15.473Z,102598.47
2023-05-16T01:37:46.923Z,102586.16
2023-05-16T01:40:17.610Z,102600.19
2023-05-16T01:42:47.035Z,102588.69
2023-05-16T01:45:17.419Z,102607.28
2023-05-16T01:47:46.353Z,102606.38
2023-05-16T01:50:16.498Z,102585.19
2023-05-16T01:52:46.430Z,102610.75
2023-05-16T01:55:17.218Z,102593.03
2023-05-16T01:57:46.517Z,102601.66
2023-05-16T02:00:14.752Z,102604.25
2023-05-16T02:02:42.670Z,102606.03
2023-05-16T02:05:10.815Z,102601.56
2023-05-16T02:07:38.677Z,102598.91
2023-05-16T02:10:08.098Z,102605.97
2023-05-16T02:12:36.028Z,102601.47
2023-05-16T02:15:05.919Z,102595.28
2023-05-16T02:17:33.882Z,102604.19
2023-05-16T02:20:06.750Z,102601.56
2023-05-16T02:22:34.681Z,102604.28
2023-05-16T02:25:04.367Z,102605.19
2023-05-16T02:27:32.287Z,102614.13
2023-05-16T02:30:00.250Z,102608.84
2023-05-16T02:32:29.549Z,102614.16
2023-05-16T02:34:57.419Z,102613.28
2023-05-16T02:37:25.263Z,102614.19
2023-05-16T02:39:53.141Z,102615.13
2023-05-16T02:42:21.032Z,102608.88
2023-05-16T02:44:49.641Z,102610.78
2023-05-16T02:47:17.551Z,102602.97
2023-05-16T02:49:46.828Z,102607.31
2023-05-16T02:52:14.678Z,102603.03
2023-05-16T02:54:42.524Z,102611.97
2023-05-16T02:57:10.411Z,102606.72
2023-05-16T02:59:38.258Z,102610.38
2023-05-16T03:02:06.315Z,102612.31
2023-05-16T03:04:34.316Z,102619.56
2023-05-16T03:07:03.706Z,102502.03
2023-05-16T03:09:31.567Z,102612.78
2023-05-16T03:11:59.590Z,102608.47
2023-05-16T03:14:27.504Z,102614.75
2023-05-16T03:16:55.376Z,102621.91
2023-05-16T03:19:23.345Z,102617.50
2023-05-16T03:21:51.263Z,102609.53
2023-05-16T03:24:22.998Z,102607.69
2023-05-16T03:26:51.142Z,102608.53
2023-05-16T03:29:19.293Z,102605.00
2023-05-16T03:31:47.297Z,102597.09
2023-05-16T03:34:15.234Z,102612.28
2023-05-16T03:36:43.335Z,102617.66
2023-05-16T03:39:11.557Z,102612.34
2023-05-16T03:41:40.825Z,102608.00
2023-05-16T03:44:08.762Z,102604.59
2023-05-16T03:46:36.682Z,102603.69
2023-05-16T03:49:04.620Z,102607.31
2023-05-16T03:51:33.228Z,102611.75
2023-05-16T03:54:01.201Z,102611.81
2023-05-16T03:56:29.114Z,102610.88
2023-05-16T03:58:58.404Z,102614.38
2023-05-16T04:01:26.298Z,102613.53
2023-05-16T04:03:54.207Z,102623.44
2023-05-16T04:06:22.418Z,102619.13
2023-05-16T04:08:50.322Z,102629.84
2023-05-16T04:11:18.210Z,102636.00
2023-05-16T04:13:46.130Z,102626.28
2023-05-16T04:16:15.514Z,102637.75
2023-05-16T04:18:43.465Z,102630.66
2023-05-16T04:21:15.120Z,102643.94
2023-05-16T04:23:43.042Z,102633.28
2023-05-16T04:26:10.878Z,102636.78
2023-05-16T04:28:38.746Z,102630.59
2023-05-16T04:31:06.756Z,102632.50
2023-05-16T04:33:36.237Z,102645.97
2023-05-16T04:36:05.981Z,102641.69
2023-05-16T04:38:34.146Z,102643.50
2023-05-16T04:41:02.644Z,102638.28
2023-05-16T04:43:30.556Z,102644.50
2023-05-16T04:45:59.139Z,102643.59
2023-05-16T04:48:27.082Z,102644.44
2023-05-16T04:51:01.030Z,102643.53
2023-05-16T04:53:29.077Z,102651.44
2023-05-16T04:55:56.927Z,102641.66
2023-05-16T04:58:25.223Z,102644.22
2023-05-16T05:00:53.206Z,102645.94
2023-05-16T05:03:21.131Z,102646.75
2023-05-16T05:05:49.063Z,102650.28
2023-05-16T05:08:19.073Z,102657.47
2023-05-16T05:10:46.940Z,102650.44
2023-05-16T05:13:14.846Z,102659.28
2023-05-16T05:15:44.565Z,102655.72
2023-05-16T05:18:12.471Z,102663.59
2023-05-16T05:20:42.273Z,102664.44
2023-05-16T05:23:10.240Z,102664.41
2023-05-16T05:25:39.945Z,102674.16
2023-05-16T05:28:07.850Z,102668.78
2023-05-16T05:30:35.907Z,102673.03
2023-05-16T05:33:03.878Z,102671.97
2023-05-16T05:35:31.787Z,102672.97
2023-05-16T05:37:59.995Z,102675.44
2023-05-16T05:40:27.961Z,102686.88
2023-05-16T05:42:57.273Z,102678.75
2023-05-16T05:45:25.417Z,102676.84
2023-05-16T05:47:53.438Z,102668.69
2023-05-16T05:50:21.551Z,102678.28
2023-05-16T05:52:51.356Z,102683.50
2023-05-16T05:55:22.606Z,102692.25
2023-05-16T05:57:50.627Z,102700.25
2023-05-16T06:00:20.504Z,102700.16
2023-05-16T06:02:48.856Z,102691.31
2023-05-16T06:05:16.858Z,102697.34
2023-05-16T06:07:47.983Z,102698.19
2023-05-16T06:10:16.042Z,102702.56
2023-05-16T06:12:44.365Z,102695.44
2023-05-16T06:15:12.822Z,102703.25
2023-05-16T06:17:42.270Z,102708.41
2023-05-16T06:20:10.639Z,102699.41
2023-05-16T06:22:38.622Z,102703.66
2023-05-16T06:25:07.276Z,102697.31
2023-05-16T06:27:35.130Z,102690.94
2023-05-16T06:30:03.033Z,102697.91
2023-05-16T06:32:31.096Z,102696.94
2023-05-16T06:35:00.464Z,102698.50
2023-05-16T06:37:28.357Z,102695.69
2023-05-16T06:39:56.467Z,102690.22
2023-05-16T06:42:24.405Z,102695.38
2023-05-16T06:44:52.539Z,102694.41
2023-05-16T06:47:20.781Z,102705.78
2023-05-16T06:49:49.109Z,102691.41
2023-05-16T06:52:18.586Z,102697.38
2023-05-16T06:54:46.588Z,102704.31
2023-05-16T06:57:14.620Z,102696.94
2023-05-16T06:59:42.940Z,102699.34
2023-05-16T07:02:11.077Z,102700.81
2023-05-16T07:04:39.510Z,102705.09
2023-05-16T07:07:08.161Z,102703.00
2023-05-16T07:09:37.490Z,102707.22
2023-05-16T07:12:06.686Z,102711.47
2023-05-16T07:14:34.738Z,102706.00
2023-05-16T07:17:03.756Z,102707.78
2023-05-16T07:19:31.909Z,102718.28
2023-05-16T07:22:02.347Z,102702.00
2023-05-16T07:24:30.568Z,102710.63
2023-05-16T07:27:03.455Z,102701.53
2023-05-16T07:29:31.748Z,102710.09
2023-05-16T07:32:00.201Z,102711.72
2023-05-16T07:34:29.127Z,102714.41
2023-05-16T07:36:57.205Z,102729.25
2023-05-16T07:39:25.284Z,102720.16
2023-05-16T07:41:53.203Z,102728.91
2023-05-16T07:44:22.586Z,102730.47
2023-05-16T07:46:50.894Z,102717.88
2023-05-16T07:51:47.679Z,102734.28
2023-05-16T07:54:15.696Z,102731.31
2023-05-16T07:56:43.622Z,102735.56
2023-05-16T07:59:15.022Z,102745.94
2023-05-16T08:01:44.359Z,102737.69
2023-05-16T08:04:12.327Z,102737.41
2023-05-16T08:06:40.244Z,102743.59
2023-05-16T08:09:09.402Z,102735.44
2023-05-16T08:11:37.432Z,102741.56
2023-05-16T08:14:05.488Z,102740.38
2023-05-16T08:16:34.090Z,102742.09
2023-05-16T08:19:03.517Z,102744.53
2023-05-16T08:21:31.933Z,102751.38
2023-05-16T08:23:59.847Z,102750.38
2023-05-16T08:26:27.994Z,102750.16
2023-05-16T08:28:55.880Z,102739.28
2023-05-16T08:31:23.916Z,102747.16
2023-05-16T08:33:52.410Z,102748.75
2023-05-16T08:36:22.091Z,102751.22
2023-05-16T08:38:51.214Z,102742.50
2023-05-16T08:41:19.308Z,102748.13
2023-05-16T08:43:47.224Z,102741.13
2023-05-16T08:46:15.340Z,102732.16
2023-05-16T08:48:43.915Z,102733.09
2023-05-16T08:51:12.248Z,102740.81
2023-05-16T08:53:43.455Z,102741.63
2023-05-16T08:56:13.996Z,102744.31
2023-05-16T08:58:42.396Z,102744.31
2023-05-16T09:01:10.697Z,102746.84
2023-05-16T09:03:39.495Z,102745.78
2023-05-16T09:06:08.425Z,102743.81
2023-05-16T09:08:36.519Z,102744.53
2023-05-16T09:11:06.164Z,102737.22
2023-05-16T09:13:34.072Z,102738.66
2023-05-16T09:16:12.521Z,102738.47
2023-05-16T09:18:40.870Z,102742.84
2023-05-16T09:21:10.900Z,102710.00
2023-05-16T09:23:41.768Z,102707.13
2023-05-16T09:26:11.394Z,102720.94
2023-05-16T09:28:39.739Z,102736.53
2023-05-16T09:31:21.169Z,102738.78
2023-05-16T09:33:49.535Z,102736.81
2023-05-16T09:36:17.692Z,102735.94
2023-05-16T09:38:45.741Z,102738.63
2023-05-16T09:41:15.196Z,102738.34
2023-05-16T09:43:44.125Z,102733.75
2023-05-16T09:46:14.097Z,102738.94
2023-05-16T09:48:43.087Z,102743.19
2023-05-16T09:51:11.081Z,102741.31
2023-05-16T09:53:39.831Z,102751.16
2023-05-16T09:56:08.976Z,102744.06
2023-05-16T09:58:46.632Z,102751.06
2023-05-16T10:01:14.633Z,102738.34
2023-05-16T10:03:43.498Z,102756.56
2023-05-16T10:06:11.682Z,102746.41
2023-05-16T10:08:41.096Z,102750.41
2023-05-16T10:11:09.245Z,102753.66
2023-05-16T10:13:45.084Z,102742.59
2023-05-16T10:16:13.496Z,102752.00
2023-05-16T10:18:44.372Z,102756.97
2023-05-16T10:21:16.107Z,102767.28
2023-05-16T10:23:44.479Z,102754.66
2023-05-16T10:26:14.883Z,102768.72
2023-05-16T10:28:45.018Z,102758.06
2023-05-16T10:31:14.857Z,102759.84
2023-05-16T10:33:42.847Z,102756.13
2023-05-16T10:36:11.025Z,102755.19
2023-05-16T10:38:39.294Z,102762.88
2023-05-16T10:41:07.694Z,102757.50
2023-05-16T10:43:38.445Z,102758.72
2023-05-16T10:46:09.754Z,102763.28
2023-05-16T10:48:39.165Z,102760.59
2023-05-16T10:51:44.936Z,102756.59
2023-05-16T10:54:15.806Z,102756.28
2023-05-16T10:56:44.406Z,102741.16
2023-05-16T10:59:26.802Z,102753.22
2023-05-16T11:01:58.646Z,102751.19
2023-05-16T11:04:37.442Z,102757.47
2023-05-16T11:07:05.657Z,102736.31
2023-05-16T11:09:34.021Z,102748.75
2023-05-16T11:12:03.674Z,102736.66
2023-05-16T11:14:38.267Z,102764.63
2023-05-16T11:17:10.937Z,102757.56
2023-05-16T11:19:43.584Z,102761.28
2023-05-16T11:22:23.129Z,102751.53
2023-05-16T11:24:53.240Z,102760.63
2023-05-16T11:27:26.176Z,102753.16
2023-05-16T11:29:55.302Z,102743.28
2023-05-16T11:32:25.057Z,102754.94
2023-05-16T11:34:54.592Z,102762.41
2023-05-16T11:37:23.027Z,102754.53
2023-05-16T11:39:52.211Z,102750.34
2023-05-16T11:42:20.454Z,102752.00
2023-05-16T11:44:48.434Z,102743.53
2023-05-16T11:47:16.499Z,102755.88
2023-05-16T11:49:47.597Z,102747.16
2023-05-16T11:52:18.386Z,102749.97
2023-05-16T11:54:46.796Z,102757.47
2023-05-16T11:57:15.229Z,102759.19
2023-05-16T11:59:43.448Z,102754.78
2023-05-16T12:02:11.705Z,102762.28
2023-05-16T12:04:40.406Z,102764.81
2023-05-16T12:07:10.091Z,102747.38
2023-05-16T12:09:38.030Z,102764.16
2023-05-16T12:12:06.919Z,102761.81
2023-05-16T12:14:35.212Z,102757.19
2023-05-16T12:17:04.908Z,102760.94
2023-05-16T12:19:33.270Z,102757.38
2023-05-16T12:22:01.820Z,102751.28
2023-05-16T12:24:34.381Z,102755.97
2023-05-16T12:27:08.858Z,102760.06
2023-05-16T12:29:39.961Z,102757.75
2023-05-16T12:32:09.550Z,102746.41
2023-05-16T12:34:37.614Z,102744.28
2023-05-16T12:37:06.304Z,102749.84
2023-05-16T12:39:39.993Z,102737.88
2023-05-16T12:42:09.634Z,102749.00
2023-05-16T12:44:37.808Z,102742.72
2023-05-16T12:47:05.890Z,102743.75
2023-05-16T12:49:34.665Z,102747.72
2023-05-16T12:52:05.961Z,102737.09
2023-05-16T12:54:34.473Z,102742.22
2023-05-16T12:57:04.443Z,102745.88
2023-05-16T12:59:35.637Z,102748.84
2023-05-16T13:02:05.349Z,102747.69
2023-05-16T13:04:33.370Z,102742.00
2023-05-16T13:07:01.349Z,102748.44
2023-05-16T13:09:32.714Z,102755.81
2023-05-16T13:12:01.540Z,102753.56
2023-05-16T13:14:31.077Z,102750.88
2023-05-16T13:16:58.986Z,102750.13
2023-05-16T13:19:27.065Z,102753.34
2023-05-16T13:21:56.391Z,102730.78
2023-05-16T13:24:24.536Z,102754.63
2023-05-16T13:26:52.803Z,102737.00
2023-05-16T13:29:20.779Z,102747.53
2023-05-16T13:31:50.442Z,102755.56
2023-05-16T13:34:18.360Z,102751.66
2023-05-16T13:36:53.638Z,102750.25
2023-05-16T13:39:23.249Z,102755.56
2023-05-16T13:41:51.700Z,102751.22
2023-05-16T13:44:19.625Z,102751.53
2023-05-16T13:46:54.008Z,102757.31
2023-05-16T13:49:22.321Z,102744.59
2023-05-16T13:51:52.179Z,102755.78
2023-05-16T13:54:21.711Z,102751.00
2023-05-16T13:56:49.707Z,102745.09
2023-05-16T13:59:28.485Z,102738.44
2023-05-16T14:02:08.025Z,102738.66
2023-05-16T14:04:36.262Z,102735.16
2023-05-16T14:07:04.624Z,102749.56
2023-05-16T14:09:35.246Z,102746.91
2023-05-16T14:12:04.522Z,102747.13
2023-05-16T14:14:32.815Z,102732.56
2023-05-16T14:17:01.595Z,102737.13
2023-05-16T14:19:31.520Z,102721.44
2023-05-16T14:21:59.962Z,102735.78
2023-05-16T14:24:28.049Z,102723.53
2023-05-16T14:26:56.228Z,102732.09
2023-05-16T14:29:24.547Z,102734.88
2023-05-16T14:31:52.848Z,102737.31
2023-05-16T14:34:22.565Z,102732.34
2023-05-16T14:36:53.168Z,102734.06
2023-05-16T14:39:21.601Z,102725.66
2023-05-16T14:41:49.729Z,102735.19
2023-05-16T14:44:18.444Z,102720.81
2023-05-16T14:46:48.101Z,102729.41
2023-05-16T14:49:16.302Z,102713.25
2023-05-16T14:51:49.225Z,102711.69
2023-05-16T14:54:19.292Z,102713.28
2023-05-16T14:56:47.799Z,102699.63
2023-05-16T14:59:16.092Z,102714.00
2023-05-16T15:01:44.199Z,102702.72
2023-05-16T15:04:12.421Z,102711.19
2023-05-16T15:06:40.777Z,102710.53
2023-05-16T15:09:09.010Z,102711.06
2023-05-16T15:11:38.647Z,102695.28
2023-05-16T15:14:07.844Z,102699.63
2023-05-16T15:16:36.166Z,102702.72
2023-05-16T15:19:04.927Z,102702.84
2023-05-16T15:21:33.403Z,102698.38
2023-05-16T15:24:01.815Z,102703.31
2023-05-16T15:26:29.777Z,102693.97
2023-05-16T15:28:59.496Z,102705.84
2023-05-16T15:31:27.735Z,102702.81
2023-05-16T15:33:56.005Z,102705.47
2023-05-16T15:36:24.090Z,102709.19
2023-05-16T15:38:53.074Z,102711.25
2023-05-16T15:41:43.598Z,102715.06
2023-05-16T15:44:14.238Z,102719.06
2023-05-16T15:46:42.710Z,102711.72
2023-05-16T15:49:15.251Z,102700.13
2023-05-16T15:51:43.581Z,102700.69
2023-05-16T15:54:12.095Z,102699.91
2023-05-16T15:56:40.432Z,102689.50
2023-05-16T15:59:16.055Z,102699.94
2023-05-16T16:01:45.870Z,102694.22
2023-05-16T16:04:13.935Z,102699.56
2023-05-16T16:06:41.891Z,102698.50
2023-05-16T16:09:11.106Z,102694.06
2023-05-16T16:11:39.677Z,102687.25
2023-05-16T16:14:08.774Z,102695.38
2023-05-16T16:16:38.593Z,102693.22
2023-05-16T16:19:08.282Z,102694.03
2023-05-16T16:21:37.333Z,102690.81
2023-05-16T16:24:07.155Z,102688.09
2023-05-16T16:26:38.414Z,102691.75
2023-05-16T16:29:06.750Z,102693.50
2023-05-16T16:31:35.228Z,102699.53
2023-05-16T16:34:03.520Z,102703.56
2023-05-16T16:36:33.629Z,102704.13
2023-05-16T16:39:01.554Z,102704.09
2023-05-16T16:41:29.633Z,102696.97
2023-05-16T16:43:57.659Z,102703.59
2023-05-16T16:46:25.722Z,102713.59
2023-05-16T16:48:54.812Z,102708.81
2023-05-16T16:51:23.497Z,102714.09
2023-05-16T16:53:53.061Z,102711.13
2023-05-16T16:56:21.847Z,102699.16
2023-05-16T16:58:50.041Z,102707.69
2023-05-16T17:01:21.303Z,102704.59
2023-05-16T17:03:49.811Z,102710.16
2023-05-16T17:06:17.820Z,102700.34
2023-05-16T17:08:46.505Z,102701.66
2023-05-16T17:11:22.598Z,102695.84
2023-05-16T17:13:51.480Z,102666.47
2023-05-16T17:16:19.462Z,102699.81
2023-05-16T17:18:47.504Z,102710.56
2023-05-16T17:21:16.300Z,102706.81
2023-05-16T17:23:44.401Z,102701.56
2023-05-16T17:26:13.623Z,102710.88
2023-05-16T17:28:47.165Z,102704.88
2023-05-16T17:31:15.977Z,102701.09
2023-05-16T17:33:44.640Z,102707.75
2023-05-16T17:36:12.683Z,102712.44
2023-05-16T17:38:41.349Z,102685.31
2023-05-16T17:41:09.311Z,102708.22
2023-05-16T17:43:37.302Z,102719.13
2023-05-16T17:46:07.583Z,102716.41
2023-05-16T17:48:35.622Z,102725.13
2023-05-16T17:51:03.702Z,102723.25
2023-05-16T17:53:31.637Z,102720.25
2023-05-16T17:55:59.742Z,102726.19
2023-05-16T17:58:28.147Z,102722.50
2023-05-16T18:00:56.102Z,102727.16
2023-05-16T18:03:25.729Z,102713.81
2023-05-16T18:05:53.918Z,102716.09
2023-05-16T18:08:21.991Z,102722.91
2023-05-16T18:10:52.831Z,102713.03
2023-05-16T18:13:20.837Z,102730.47
2023-05-16T18:15:49.011Z,102730.41
2023-05-16T18:18:21.035Z,102729.47
2023-05-16T18:20:52.864Z,102728.09
2023-05-16T18:23:21.550Z,102734.50
2023-05-16T18:25:49.570Z,102736.59
2023-05-16T18:28:21.699Z,102723.22
2023-05-16T18:30:50.542Z,102727.19
2023-05-16T18:33:18.538Z,102724.38
2023-05-16T18:35:46.908Z,102728.91
2023-05-16T18:38:28.351Z,102737.75
2023-05-16T18:41:00.508Z,102740.81
2023-05-16T18:43:31.565Z,102724.44
2023-05-16T18:45:59.866Z,102747.91
2023-05-16T18:48:30.320Z,102735.53
2023-05-16T18:51:01.569Z,102735.84
2023-05-16T18:53:30.954Z,102736.75
2023-05-16T18:55:59.498Z,102743.59
2023-05-16T18:58:27.613Z,102731.44
2023-05-16T19:00:57.875Z,102739.53
2023-05-16T19:03:32.922Z,102714.28
2023-05-16T19:06:00.940Z,102736.66
2023-05-16T19:08:44.169Z,102733.00
2023-05-16T19:11:15.353Z,102746.22
2023-05-16T19:13:43.292Z,102742.25
2023-05-16T19:16:11.370Z,102751.72
2023-05-16T19:18:39.597Z,102747.72
2023-05-16T19:21:08.768Z,102740.50
2023-05-16T19:23:38.164Z,102758.56
2023-05-16T19:26:06.191Z,102761.47
2023-05-16T19:28:34.765Z,102763.56
2023-05-16T19:31:02.739Z,102756.56
2023-05-16T19:33:30.798Z,102763.03
2023-05-16T19:35:58.871Z,102758.03
2023-05-16T19:38:27.251Z,102763.72
2023-05-16T19:40:56.676Z,102761.38
2023-05-16T19:43:24.857Z,102759.59
2023-05-16T19:45:52.918Z,102757.19
2023-05-16T19:48:21.221Z,102760.81
2023-05-16T19:50:49.551Z,102758.34
2023-05-16T19:53:17.729Z,102756.97
2023-05-16T19:55:46.827Z,102763.44
2023-05-16T19:58:16.319Z,102761.09
2023-05-16T20:00:47.403Z,102776.44
2023-05-16T20:03:15.621Z,102772.31
2023-05-16T20:05:43.683Z,102770.94
2023-05-16T20:08:12.069Z,102771.22
2023-05-16T20:10:43.053Z,102786.59
2023-05-16T20:13:11.085Z,102787.78
2023-05-16T20:15:40.635Z,102791.59
2023-05-16T20:18:08.707Z,102792.84
2023-05-16T20:20:38.789Z,102795.84
2023-05-16T20:23:06.938Z,102779.47
2023-05-16T20:25:35.580Z,102797.09
2023-05-16T20:28:03.607Z,102804.34
2023-05-16T20:33:16.392Z,102798.66
2023-05-16T20:35:44.551Z,102817.34
2023-05-16T20:38:12.694Z,102811.34
2023-05-16T20:40:40.796Z,102809.47
2023-05-16T20:43:08.766Z,102828.06
2023-05-16T20:45:36.813Z,102819.28
2023-05-16T20:48:11.166Z,102799.34
2023-05-16T20:50:40.736Z,102761.00
2023-05-16T20:53:08.627Z,102822.81
2023-05-16T20:55:36.527Z,102828.22
2023-05-16T20:58:04.466Z,102839.91
2023-05-16T21:00:33.672Z,102832.81
2023-05-16T21:03:01.726Z,102840.88
2023-05-16T21:05:29.831Z,102838.19
2023-05-16T21:07:59.159Z,102837.28
2023-05-16T21:10:27.095Z,102835.44
2023-05-16T21:12:55.053Z,102842.50
2023-05-16T21:15:23.644Z,102837.22
2023-05-16T21:17:51.840Z,102840.81
2023-05-16T21:20:20.182Z,102847.19
2023-05-16T21:22:48.137Z,102847.34
2023-05-16T21:25:17.462Z,102848.34
2023-05-16T21:27:45.430Z,102845.81
2023-05-16T21:30:14.571Z,102846.75
2023-05-16T21:32:42.728Z,102845.03
2023-05-16T21:35:11.026Z,102847.78
2023-05-16T21:37:38.998Z,102828.41
2023-05-16T21:40:09.383Z,102848.00
2023-05-16T21:42:38.880Z,102844.59
2023-05-16T21:45:12.519Z,102841.16
2023-05-16T21:47:40.563Z,102845.69
2023-05-16T21:50:09.716Z,102837.75
2023-05-16T21:52:37.711Z,102834.19
2023-05-16T21:55:06.467Z,102831.63
2023-05-16T21:57:34.412Z,102844.00
2023-05-16T22:00:06.690Z,102839.69
2023-05-16T22:02:34.909Z,102834.38
2023-05-16T22:05:02.942Z,102838.94
2023-05-16T22:07:31.724Z,102830.06
2023-05-16T22:10:00.113Z,102826.56
2023-05-16T22:12:28.373Z,102830.28
2023-05-16T22:14:56.353Z,102831.25
2023-05-16T22:17:25.759Z,102838.50
2023-05-16T22:19:54.108Z,102833.22
2023-05-16T22:22:22.103Z,102842.22
2023-05-16T22:24:50.051Z,102851.16
2023-05-16T22:27:18.061Z,102845.84
2023-05-16T22:29:46.145Z,102849.44
2023-05-16T22:32:14.734Z,102848.69
2023-05-16T22:34:44.406Z,102844.41
2023-05-16T22:37:12.460Z,102855.13
2023-05-16T22:39:43.049Z,102861.53
2023-05-16T22:42:11.182Z,102860.81
2023-05-16T22:44:39.164Z,102853.88
2023-05-16T22:47:07.715Z,102844.31
2023-05-16T22:49:35.808Z,102856.69
2023-05-16T22:52:08.360Z,102854.13
2023-05-16T22:54:36.362Z,102852.41
2023-05-16T22:57:04.325Z,102855.16
2023-05-16T22:59:32.864Z,102851.72
2023-05-16T23:02:00.841Z,102851.75
2023-05-16T23:04:28.862Z,102854.47
2023-05-16T23:06:57.011Z,102849.22
2023-05-16T23:09:26.859Z,102854.63
2023-05-16T23:11:54.806Z,102858.31
2023-05-16T23:14:22.766Z,102857.44
2023-05-16T23:16:50.739Z,102862.00
2023-05-16T23:19:18.842Z,102851.41
2023-05-16T23:21:46.868Z,102854.19
2023-05-16T23:24:14.815Z,102857.00
2023-05-16T23:26:44.247Z,102850.16
2023-05-16T23:29:12.237Z,102863.38
2023-05-16T23:31:40.170Z,102862.59
2023-05-16T23:34:08.204Z,102861.69
2023-05-16T23:36:36.272Z,102853.75
2023-05-16T23:39:04.298Z,102854.75
2023-05-16T23:41:32.282Z,102854.03
2023-05-16T23:44:01.676Z,102847.84
2023-05-16T23:46:29.649Z,102853.28
2023-05-16T23:48:57.933Z,102855.09
2023-05-16T23:51:26.039Z,102856.09
2023-05-16T23:53:53.982Z,102854.38
2023-05-16T23:56:21.965Z,102851.75
2023-05-16T23:58:59.224Z,102858.94
